sensor_id;sensor_type;location;lat;lon;timestamp;pressure;altitude;pressure_sealevel;temperature;humidity
39223;BME280;24936;46.328;11.026;2023-05-07T00:00:19;94435.75;;;11.94;98.67
39223;BME280;24936;46.328;11.026;2023-05-07T00:02:45;94437.84;;;11.90;98.75
39223;BME280;24936;46.328;11.026;2023-05-07T00:05:11;94441.88;;;11.85;98.66
39223;BME280;24936;46.328;11.026;2023-05-07T00:07:37;94435.81;;;11.84;98.76
39223;BME280;24936;46.328;11.026;2023-05-07T00:10:03;94435.41;;;11.79;98.76
39223;BME280;24936;46.328;11.026;2023-05-07T00:12:29;94441.13;;;11.74;98.79
39223;BME280;24936;46.328;11.026;2023-05-07T00:15:00;94438.78;;;11.71;99.24
39223;BME280;24936;46.328;11.026;2023-05-07T00:17:25;94433.81;;;11.68;98.97
39223;BME280;24936;46.328;11.026;2023-05-07T00:19:51;94446.03;;;11.69;98.91
39223;BME280;24936;46.328;11.026;2023-05-07T00:22:16;94437.97;;;11.71;98.88
39223;BME280;24936;46.328;11.026;2023-05-07T00:24:42;94432.69;;;11.71;99.15
39223;BME280;24936;46.328;11.026;2023-05-07T00:27:08;94432.16;;;11.67;99.19
39223;BME280;24936;46.328;11.026;2023-05-07T00:29:33;94430.63;;;11.65;98.66
39223;BME280;24936;46.328;11.026;2023-05-07T00:31:59;94436.88;;;11.63;98.81
39223;BME280;24936;46.328;11.026;2023-05-07T00:34:24;94436.13;;;11.71;98.96
39223;BME280;24936;46.328;11.026;2023-05-07T00:36:50;94438.41;;;11.66;99.13
39223;BME280;24936;46.328;11.026;2023-05-07T00:39:15;94436.75;;;11.65;98.94
39223;BME280;24936;46.328;11.026;2023-05-07T00:41:41;94431.31;;;11.67;98.29
39223;BME280;24936;46.328;11.026;2023-05-07T00:44:06;94428.56;;;11.68;98.32
39223;BME280;24936;46.328;11.026;2023-05-07T00:46:32;94429.22;;;11.70;98.34
39223;BME280;24936;46.328;11.026;2023-05-07T00:48:59;94429.84;;;11.82;98.49
39223;BME280;24936;46.328;11.026;2023-05-07T00:51:25;94438.44;;;11.84;98.32
39223;BME280;24936;46.328;11.026;2023-05-07T00:53:54;94433.75;;;11.78;98.31
39223;BME280;24936;46.328;11.026;2023-05-07T00:56:21;94443.00;;;11.64;98.40
39223;BME280;24936;46.328;11.026;2023-05-07T00:58:48;94435.81;;;11.56;98.62
39223;BME280;24936;46.328;11.026;2023-05-07T01:01:13;94441.09;;;11.56;98.68
39223;BME280;24936;46.328;11.026;2023-05-07T01:03:42;94435.72;;;11.48;98.79
39223;BME280;24936;46.328;11.026;2023-05-07T01:06:08;94437.44;;;11.39;98.79
39223;BME280;24936;46.328;11.026;2023-05-07T01:08:35;94434.78;;;11.39;99.15
39223;BME280;24936;46.328;11.026;2023-05-07T01:11:01;94438.16;;;11.31;98.70
39223;BME280;24936;46.328;11.026;2023-05-07T01:13:27;94430.84;;;11.53;99.07
39223;BME280;24936;46.328;11.026;2023-05-07T01:15:53;94435.13;;;11.26;99.11
39223;BME280;24936;46.328;11.026;2023-05-07T01:18:19;94426.72;;;11.13;99.55
39223;BME280;24936;46.328;11.026;2023-05-07T01:20:45;94425.47;;;11.07;99.98
39223;BME280;24936;46.328;11.026;2023-05-07T01:23:11;94420.31;;;11.15;99.83
39223;BME280;24936;46.328;11.026;2023-05-07T01:25:37;94420.38;;;11.06;100.00
39223;BME280;24936;46.328;11.026;2023-05-07T01:28:02;94421.91;;;10.98;100.00
39223;BME280;24936;46.328;11.026;2023-05-07T01:30:28;94418.28;;;10.99;100.00
39223;BME280;24936;46.328;11.026;2023-05-07T01:33:07;94420.81;;;10.91;100.00
39223;BME280;24936;46.328;11.026;2023-05-07T01:35:37;94414.53;;;11.02;100.00
39223;BME280;24936;46.328;11.026;2023-05-07T01:38:04;94415.91;;;11.06;100.00
39223;BME280;24936;46.328;11.026;2023-05-07T01:40:31;94412.41;;;11.15;100.00
39223;BME280;24936;46.328;11.026;2023-05-07T01:42:56;94424.06;;;11.13;100.00
39223;BME280;24936;46.328;11.026;2023-05-07T01:45:23;94425.00;;;11.22;99.92
39223;BME280;24936;46.328;11.026;2023-05-07T01:47:49;94424.94;;;11.04;99.93
39223;BME280;24936;46.328;11.026;2023-05-07T01:50:17;94428.53;;;11.02;100.00
39223;BME280;24936;46.328;11.026;2023-05-07T01:52:43;94431.19;;;11.02;100.00
39223;BME280;24936;46.328;11.026;2023-05-07T01:55:09;94429.09;;;11.06;100.00
39223;BME280;24936;46.328;11.026;2023-05-07T01:57:35;94434.75;;;11.11;100.00
39223;BME280;24936;46.328;11.026;2023-05-07T02:00:06;94424.09;;;11.03;100.00
39223;BME280;24936;46.328;11.026;2023-05-07T02:02:31;94422.41;;;11.12;100.00
39223;BME280;24936;46.328;11.026;2023-05-07T02:05:05;94428.13;;;11.07;100.00
39223;BME280;24936;46.328;11.026;2023-05-07T02:07:30;94434.09;;;10.99;100.00
39223;BME280;24936;46.328;11.026;2023-05-07T02:09:56;94430.78;;;10.97;100.00
39223;BME280;24936;46.328;11.026;2023-05-07T02:12:22;94423.84;;;10.96;100.00
39223;BME280;24936;46.328;11.026;2023-05-07T02:14:47;94428.72;;;10.91;100.00
39223;BME280;24936;46.328;11.026;2023-05-07T02:17:13;94426.09;;;10.91;100.00
39223;BME280;24936;46.328;11.026;2023-05-07T02:19:39;94426.66;;;10.85;100.00
39223;BME280;24936;46.328;11.026;2023-05-07T02:22:04;94424.28;;;10.82;100.00
39223;BME280;24936;46.328;11.026;2023-05-07T02:24:30;94422.75;;;10.89;100.00
39223;BME280;24936;46.328;11.026;2023-05-07T02:26:56;94429.72;;;10.80;100.00
39223;BME280;24936;46.328;11.026;2023-05-07T02:29:21;94426.53;;;10.77;100.00
39223;BME280;24936;46.328;11.026;2023-05-07T02:31:47;94417.44;;;10.61;100.00
39223;BME280;24936;46.328;11.026;2023-05-07T02:34:16;94423.22;;;10.55;100.00
39223;BME280;24936;46.328;11.026;2023-05-07T02:36:42;94413.13;;;10.40;100.00
39223;BME280;24936;46.328;11.026;2023-05-07T02:39:07;94411.19;;;10.43;100.00
39223;BME280;24936;46.328;11.026;2023-05-07T02:41:33;94411.84;;;10.74;100.00
39223;BME280;24936;46.328;11.026;2023-05-07T02:43:58;94415.75;;;10.70;100.00
39223;BME280;24936;46.328;11.026;2023-05-07T02:46:24;94415.34;;;10.65;100.00
39223;BME280;24936;46.328;11.026;2023-05-07T02:51:52;94417.25;;;10.82;100.00
39223;BME280;24936;46.328;11.026;2023-05-07T02:54:18;94417.69;;;10.78;100.00
39223;BME280;24936;46.328;11.026;2023-05-07T02:56:43;94411.44;;;10.79;100.00
39223;BME280;24936;46.328;11.026;2023-05-07T02:59:09;94414.72;;;10.81;100.00
39223;BME280;24936;46.328;11.026;2023-05-07T03:01:34;94409.19;;;10.84;100.00
39223;BME280;24936;46.328;11.026;2023-05-07T03:04:00;94400.72;;;10.90;100.00
39223;BME280;24936;46.328;11.026;2023-05-07T03:06:26;94403.38;;;10.90;100.00
39223;BME280;24936;46.328;11.026;2023-05-07T03:08:52;94400.44;;;10.93;100.00
39223;BME280;24936;46.328;11.026;2023-05-07T03:11:17;94402.09;;;10.94;100.00
39223;BME280;24936;46.328;11.026;2023-05-07T03:13:43;94405.13;;;10.99;100.00
39223;BME280;24936;46.328;11.026;2023-05-07T03:16:08;94406.88;;;11.09;100.00
39223;BME280;24936;46.328;11.026;2023-05-07T03:18:34;94408.28;;;11.13;100.00
39223;BME280;24936;46.328;11.026;2023-05-07T03:20:59;94407.44;;;11.12;100.00
39223;BME280;24936;46.328;11.026;2023-05-07T03:23:25;94409.06;;;11.23;99.67
39223;BME280;24936;46.328;11.026;2023-05-07T03:25:50;94409.38;;;11.20;99.71
39223;BME280;24936;46.328;11.026;2023-05-07T03:28:16;94414.22;;;11.15;99.61
39223;BME280;24936;46.328;11.026;2023-05-07T03:30:41;94408.97;;;11.15;99.62
39223;BME280;24936;46.328;11.026;2023-05-07T03:33:07;94417.72;;;11.06;99.83
39223;BME280;24936;46.328;11.026;2023-05-07T03:35:32;94417.75;;;10.96;99.98
39223;BME280;24936;46.328;11.026;2023-05-07T03:37:58;94428.16;;;10.88;100.00
39223;BME280;24936;46.328;11.026;2023-05-07T03:40:23;94426.38;;;10.88;100.00
39223;BME280;24936;46.328;11.026;2023-05-07T03:42:49;94426.63;;;10.95;100.00
39223;BME280;24936;46.328;11.026;2023-05-07T03:45:14;94427.75;;;10.92;100.00
39223;BME280;24936;46.328;11.026;2023-05-07T03:47:40;94420.66;;;10.93;100.00
39223;BME280;24936;46.328;11.026;2023-05-07T03:50:06;94427.19;;;10.89;100.00
39223;BME280;24936;46.328;11.026;2023-05-07T03:52:31;94426.91;;;10.92;100.00
39223;BME280;24936;46.328;11.026;2023-05-07T03:54:57;94422.50;;;10.92;100.00
39223;BME280;24936;46.328;11.026;2023-05-07T03:57:22;94425.41;;;10.89;100.00
39223;BME280;24936;46.328;11.026;2023-05-07T03:59:48;94420.41;;;10.86;100.00
39223;BME280;24936;46.328;11.026;2023-05-07T04:02:13;94417.78;;;10.86;100.00
39223;BME280;24936;46.328;11.026;2023-05-07T04:04:39;94419.59;;;10.85;100.00
39223;BME280;24936;46.328;11.026;2023-05-07T04:07:04;94422.22;;;10.85;100.00
39223;BME280;24936;46.328;11.026;2023-05-07T04:09:30;94423.31;;;10.83;100.00
39223;BME280;24936;46.328;11.026;2023-05-07T04:11:55;94424.97;;;10.84;99.98
39223;BME280;24936;46.328;11.026;2023-05-07T04:14:21;94425.25;;;10.91;99.61
39223;BME280;24936;46.328;11.026;2023-05-07T04:16:46;94426.09;;;10.91;99.06
39223;BME280;24936;46.328;11.026;2023-05-07T04:19:12;94419.16;;;10.90;98.85
39223;BME280;24936;46.328;11.026;2023-05-07T04:21:37;94423.59;;;10.90;98.90
39223;BME280;24936;46.328;11.026;2023-05-07T04:24:03;94418.19;;;10.91;98.79
39223;BME280;24936;46.328;11.026;2023-05-07T04:26:29;94422.34;;;10.94;98.73
39223;BME280;24936;46.328;11.026;2023-05-07T04:28:54;94425.66;;;10.96;98.56
39223;BME280;24936;46.328;11.026;2023-05-07T04:31:20;94430.91;;;11.06;98.13
39223;BME280;24936;46.328;11.026;2023-05-07T04:33:46;94431.88;;;11.05;98.14
39223;BME280;24936;46.328;11.026;2023-05-07T04:36:11;94428.28;;;11.06;98.14
39223;BME280;24936;46.328;11.026;2023-05-07T04:38:37;94431.88;;;11.05;98.24
39223;BME280;24936;46.328;11.026;2023-05-07T04:41:03;94428.94;;;11.08;98.52
39223;BME280;24936;46.328;11.026;2023-05-07T04:43:30;94432.94;;;11.12;98.99
39223;BME280;24936;46.328;11.026;2023-05-07T04:45:56;94437.53;;;11.10;99.48
39223;BME280;24936;46.328;11.026;2023-05-07T04:48:21;94429.50;;;11.11;99.57
39223;BME280;24936;46.328;11.026;2023-05-07T04:50:47;94434.50;;;11.05;99.70
39223;BME280;24936;46.328;11.026;2023-05-07T04:53:13;94440.75;;;11.04;99.94
39223;BME280;24936;46.328;11.026;2023-05-07T04:55:38;94439.38;;;10.99;99.96
39223;BME280;24936;46.328;11.026;2023-05-07T04:58:04;94443.56;;;10.92;100.00
39223;BME280;24936;46.328;11.026;2023-05-07T05:00:30;94446.47;;;10.89;100.00
39223;BME280;24936;46.328;11.026;2023-05-07T05:02:56;94446.56;;;10.97;100.00
39223;BME280;24936;46.328;11.026;2023-05-07T05:05:21;94453.50;;;10.98;100.00
39223;BME280;24936;46.328;11.026;2023-05-07T05:07:47;94449.91;;;10.99;100.00
39223;BME280;24936;46.328;11.026;2023-05-07T05:10:12;94449.34;;;11.06;100.00
39223;BME280;24936;46.328;11.026;2023-05-07T05:12:38;94449.69;;;11.21;99.97
39223;BME280;24936;46.328;11.026;2023-05-07T05:15:04;94451.50;;;11.20;99.87
39223;BME280;24936;46.328;11.026;2023-05-07T05:17:30;94453.56;;;11.16;99.76
39223;BME280;24936;46.328;11.026;2023-05-07T05:19:56;94453.84;;;11.23;99.67
39223;BME280;24936;46.328;11.026;2023-05-07T05:22:21;94462.31;;;11.27;99.26
39223;BME280;24936;46.328;11.026;2023-05-07T05:24:47;94456.16;;;11.36;98.68
39223;BME280;24936;46.328;11.026;2023-05-07T05:27:12;94458.59;;;11.47;98.15
39223;BME280;24936;46.328;11.026;2023-05-07T05:29:38;94449.41;;;11.61;97.26
39223;BME280;24936;46.328;11.026;2023-05-07T05:32:03;94460.72;;;11.72;96.11
39223;BME280;24936;46.328;11.026;2023-05-07T05:34:29;94452.81;;;11.72;95.88
39223;BME280;24936;46.328;11.026;2023-05-07T05:36:54;94450.97;;;11.72;95.66
39223;BME280;24936;46.328;11.026;2023-05-07T05:39:20;94456.50;;;11.79;96.03
39223;BME280;24936;46.328;11.026;2023-05-07T05:41:46;94457.41;;;11.88;95.65
39223;BME280;24936;46.328;11.026;2023-05-07T05:44:12;94455.19;;;11.93;95.41
39223;BME280;24936;46.328;11.026;2023-05-07T05:46:37;94450.84;;;12.02;95.27
39223;BME280;24936;46.328;11.026;2023-05-07T05:49:03;94446.28;;;12.04;95.13
39223;BME280;24936;46.328;11.026;2023-05-07T05:51:28;94446.63;;;12.27;94.75
39223;BME280;24936;46.328;11.026;2023-05-07T05:53:54;94439.09;;;12.50;94.06
39223;BME280;24936;46.328;11.026;2023-05-07T05:56:19;94437.13;;;12.52;93.42
39223;BME280;24936;46.328;11.026;2023-05-07T05:58:45;94439.06;;;12.68;92.88
39223;BME280;24936;46.328;11.026;2023-05-07T06:01:10;94438.38;;;12.84;92.11
39223;BME280;24936;46.328;11.026;2023-05-07T06:03:37;94439.25;;;12.93;90.05
39223;BME280;24936;46.328;11.026;2023-05-07T06:06:02;94436.50;;;13.03;88.39
39223;BME280;24936;46.328;11.026;2023-05-07T06:08:29;94438.44;;;13.19;87.18
39223;BME280;24936;46.328;11.026;2023-05-07T06:10:55;94437.00;;;13.33;86.81
39223;BME280;24936;46.328;11.026;2023-05-07T06:13:21;94437.38;;;13.38;86.16
39223;BME280;24936;46.328;11.026;2023-05-07T06:15:46;94434.44;;;13.41;84.92
39223;BME280;24936;46.328;11.026;2023-05-07T06:18:12;94427.53;;;13.49;85.32
39223;BME280;24936;46.328;11.026;2023-05-07T06:20:37;94426.13;;;13.71;84.34
39223;BME280;24936;46.328;11.026;2023-05-07T06:23:03;94427.81;;;13.80;83.58
39223;BME280;24936;46.328;11.026;2023-05-07T06:25:28;94424.84;;;13.83;82.14
39223;BME280;24936;46.328;11.026;2023-05-07T06:27:54;94424.03;;;13.91;83.84
39223;BME280;24936;46.328;11.026;2023-05-07T06:30:19;94428.59;;;13.64;85.33
39223;BME280;24936;46.328;11.026;2023-05-07T06:32:45;94429.31;;;13.83;84.03
39223;BME280;24936;46.328;11.026;2023-05-07T06:35:10;94425.06;;;14.06;82.85
39223;BME280;24936;46.328;11.026;2023-05-07T06:37:36;94421.97;;;14.19;82.69
39223;BME280;24936;46.328;11.026;2023-05-07T06:40:05;94422.13;;;14.34;83.45
39223;BME280;24936;46.328;11.026;2023-05-07T06:42:31;94414.53;;;14.40;83.29
39223;BME280;24936;46.328;11.026;2023-05-07T06:44:56;94425.78;;;14.50;83.64
39223;BME280;24936;46.328;11.026;2023-05-07T06:47:22;94412.22;;;14.61;83.69
39223;BME280;24936;46.328;11.026;2023-05-07T06:49:47;94415.91;;;14.68;83.61
39223;BME280;24936;46.328;11.026;2023-05-07T06:52:13;94420.50;;;14.58;82.79
39223;BME280;24936;46.328;11.026;2023-05-07T06:54:38;94424.94;;;14.49;84.81
39223;BME280;24936;46.328;11.026;2023-05-07T06:57:04;94426.59;;;14.50;83.98
39223;BME280;24936;46.328;11.026;2023-05-07T06:59:29;94426.13;;;14.47;84.26
39223;BME280;24936;46.328;11.026;2023-05-07T07:01:54;94422.66;;;14.55;85.79
39223;BME280;24936;46.328;11.026;2023-05-07T07:04:21;94421.47;;;14.57;85.42
39223;BME280;24936;46.328;11.026;2023-05-07T07:06:48;94427.81;;;14.81;86.21
39223;BME280;24936;46.328;11.026;2023-05-07T07:09:13;94418.53;;;14.85;85.08
39223;BME280;24936;46.328;11.026;2023-05-07T07:11:39;94412.84;;;15.13;83.35
39223;BME280;24936;46.328;11.026;2023-05-07T07:14:05;94412.00;;;15.21;82.18
39223;BME280;24936;46.328;11.026;2023-05-07T07:16:30;94409.66;;;15.34;80.21
39223;BME280;24936;46.328;11.026;2023-05-07T07:18:56;94409.31;;;15.46;79.46
39223;BME280;24936;46.328;11.026;2023-05-07T07:21:21;94405.97;;;15.83;78.63
39223;BME280;24936;46.328;11.026;2023-05-07T07:23:47;94398.00;;;15.92;78.79
39223;BME280;24936;46.328;11.026;2023-05-07T07:26:12;94403.59;;;15.97;77.21
39223;BME280;24936;46.328;11.026;2023-05-07T07:28:44;94399.38;;;16.11;76.81
39223;BME280;24936;46.328;11.026;2023-05-07T07:31:10;94395.75;;;16.35;77.15
39223;BME280;24936;46.328;11.026;2023-05-07T07:33:36;94396.63;;;16.50;77.45
39223;BME280;24936;46.328;11.026;2023-05-07T07:36:01;94392.28;;;16.73;76.84
39223;BME280;24936;46.328;11.026;2023-05-07T07:38:26;94395.03;;;16.79;77.07
39223;BME280;24936;46.328;11.026;2023-05-07T07:40:52;94399.53;;;16.79;75.57
39223;BME280;24936;46.328;11.026;2023-05-07T07:43:17;94396.34;;;16.84;75.28
39223;BME280;24936;46.328;11.026;2023-05-07T07:45:43;94394.78;;;16.89;75.80
39223;BME280;24936;46.328;11.026;2023-05-07T07:48:08;94394.75;;;16.98;76.06
39223;BME280;24936;46.328;11.026;2023-05-07T07:50:34;94384.28;;;16.96;73.47
39223;BME280;24936;46.328;11.026;2023-05-07T07:53:00;94393.41;;;17.17;73.93
39223;BME280;24936;46.328;11.026;2023-05-07T07:55:25;94389.19;;;17.22;74.53
39223;BME280;24936;46.328;11.026;2023-05-07T07:57:52;94387.81;;;17.41;75.80
39223;BME280;24936;46.328;11.026;2023-05-07T08:00:17;94396.63;;;17.27;75.21
39223;BME280;24936;46.328;11.026;2023-05-07T08:02:43;94394.16;;;17.25;75.05
39223;BME280;24936;46.328;11.026;2023-05-07T08:05:08;94397.63;;;17.11;73.73
39223;BME280;24936;46.328;11.026;2023-05-07T08:07:34;94388.44;;;17.58;75.71
39223;BME280;24936;46.328;11.026;2023-05-07T08:09:59;94387.44;;;17.75;74.43
39223;BME280;24936;46.328;11.026;2023-05-07T08:12:25;94392.09;;;17.57;73.89
39223;BME280;24936;46.328;11.026;2023-05-07T08:14:50;94401.94;;;17.57;73.46
39223;BME280;24936;46.328;11.026;2023-05-07T08:17:16;94399.38;;;17.19;74.23
39223;BME280;24936;46.328;11.026;2023-05-07T08:19:42;94395.13;;;16.94;75.31
39223;BME280;24936;46.328;11.026;2023-05-07T08:22:09;94400.09;;;16.89;76.60
39223;BME280;24936;46.328;11.026;2023-05-07T08:24:34;94396.00;;;16.87;75.01
39223;BME280;24936;46.328;11.026;2023-05-07T08:27:00;94393.88;;;17.05;75.75
39223;BME280;24936;46.328;11.026;2023-05-07T08:29:25;94396.06;;;16.78;75.12
39223;BME280;24936;46.328;11.026;2023-05-07T08:31:50;94398.09;;;16.76;75.54
39223;BME280;24936;46.328;11.026;2023-05-07T08:34:16;94401.44;;;16.70;76.20
39223;BME280;24936;46.328;11.026;2023-05-07T08:36:41;94399.66;;;16.86;75.40
39223;BME280;24936;46.328;11.026;2023-05-07T08:39:07;94401.38;;;17.17;76.43
39223;BME280;24936;46.328;11.026;2023-05-07T08:41:32;94400.75;;;17.15;75.34
39223;BME280;24936;46.328;11.026;2023-05-07T08:43:58;94406.63;;;17.55;75.52
39223;BME280;24936;46.328;11.026;2023-05-07T08:46:31;94402.56;;;17.74;73.13
39223;BME280;24936;46.328;11.026;2023-05-07T08:48:57;94395.56;;;17.88;73.51
39223;BME280;24936;46.328;11.026;2023-05-07T08:51:22;94394.41;;;17.76;72.49
39223;BME280;24936;46.328;11.026;2023-05-07T08:53:49;94394.06;;;18.15;71.50
39223;BME280;24936;46.328;11.026;2023-05-07T08:56:15;94384.25;;;18.38;68.49
39223;BME280;24936;46.328;11.026;2023-05-07T08:58:42;94387.59;;;18.68;67.29
39223;BME280;24936;46.328;11.026;2023-05-07T09:01:17;94388.25;;;19.27;66.17
39223;BME280;24936;46.328;11.026;2023-05-07T09:03:46;94382.00;;;19.41;65.99
39223;BME280;24936;46.328;11.026;2023-05-07T09:06:12;94387.81;;;19.59;67.27
39223;BME280;24936;46.328;11.026;2023-05-07T09:08:37;94376.66;;;19.41;65.35
39223;BME280;24936;46.328;11.026;2023-05-07T09:11:03;94390.66;;;18.93;67.52
39223;BME280;24936;46.328;11.026;2023-05-07T09:13:29;94381.03;;;18.92;67.65
39223;BME280;24936;46.328;11.026;2023-05-07T09:15:55;94387.69;;;18.82;69.46
39223;BME280;24936;46.328;11.026;2023-05-07T09:18:23;94385.41;;;19.29;68.86
39223;BME280;24936;46.328;11.026;2023-05-07T09:20:49;94374.97;;;19.69;65.26
39223;BME280;24936;46.328;11.026;2023-05-07T09:23:14;94373.19;;;21.12;64.18
39223;BME280;24936;46.328;11.026;2023-05-07T09:25:40;94376.16;;;22.28;62.49
39223;BME280;24936;46.328;11.026;2023-05-07T09:28:05;94368.66;;;23.27;57.91
39223;BME280;24936;46.328;11.026;2023-05-07T09:30:35;94363.91;;;23.85;53.63
39223;BME280;24936;46.328;11.026;2023-05-07T09:33:03;94361.41;;;24.69;52.06
39223;BME280;24936;46.328;11.026;2023-05-07T09:35:29;94367.06;;;24.92;51.04
39223;BME280;24936;46.328;11.026;2023-05-07T09:37:56;94361.44;;;24.51;49.41
39223;BME280;24936;46.328;11.026;2023-05-07T09:40:26;94364.34;;;22.43;54.23
39223;BME280;24936;46.328;11.026;2023-05-07T09:42:53;94361.72;;;21.84;56.45
39223;BME280;24936;46.328;11.026;2023-05-07T09:45:28;94359.81;;;21.19;57.29
39223;BME280;24936;46.328;11.026;2023-05-07T09:47:55;94355.72;;;20.83;58.66
39223;BME280;24936;46.328;11.026;2023-05-07T09:50:26;94360.59;;;21.39;60.50
39223;BME280;24936;46.328;11.026;2023-05-07T09:52:53;94355.22;;;21.46;60.09
39223;BME280;24936;46.328;11.026;2023-05-07T09:55:19;94351.59;;;20.93;60.48
39223;BME280;24936;46.328;11.026;2023-05-07T09:57:45;94345.38;;;21.40;59.71
39223;BME280;24936;46.328;11.026;2023-05-07T10:00:12;94348.69;;;21.29;59.82
39223;BME280;24936;46.328;11.026;2023-05-07T10:02:39;94345.56;;;21.38;56.98
39223;BME280;24936;46.328;11.026;2023-05-07T10:05:12;94342.75;;;21.92;58.44
39223;BME280;24936;46.328;11.026;2023-05-07T10:07:40;94343.03;;;22.16;57.97
39223;BME280;24936;46.328;11.026;2023-05-07T10:10:06;94340.75;;;21.67;59.26
39223;BME280;24936;46.328;11.026;2023-05-07T10:12:32;94337.81;;;21.10;59.82
39223;BME280;24936;46.328;11.026;2023-05-07T10:15:05;94338.19;;;21.20;60.33
39223;BME280;24936;46.328;11.026;2023-05-07T10:17:34;94328.84;;;21.57;55.45
39223;BME280;24936;46.328;11.026;2023-05-07T10:20:00;94330.59;;;21.90;58.43
39223;BME280;24936;46.328;11.026;2023-05-07T10:22:26;94333.28;;;21.83;58.03
39223;BME280;24936;46.328;11.026;2023-05-07T10:24:53;94331.00;;;22.25;57.26
39223;BME280;24936;46.328;11.026;2023-05-07T10:27:21;94323.28;;;22.74;55.83
39223;BME280;24936;46.328;11.026;2023-05-07T10:29:58;94323.06;;;22.12;52.64
39223;BME280;24936;46.328;11.026;2023-05-07T10:32:47;94320.03;;;22.02;52.27
39223;BME280;24936;46.328;11.026;2023-05-07T10:35:17;94320.03;;;22.66;57.33
39223;BME280;24936;46.328;11.026;2023-05-07T10:37:43;94316.91;;;22.43;52.14
39223;BME280;24936;46.328;11.026;2023-05-07T10:40:10;94306.03;;;22.64;51.76
39223;BME280;24936;46.328;11.026;2023-05-07T10:42:36;94310.97;;;22.41;55.73
39223;BME280;24936;46.328;11.026;2023-05-07T10:45:12;94307.94;;;22.24;53.94
39223;BME280;24936;46.328;11.026;2023-05-07T10:50:39;94306.56;;;22.72;51.00
39223;BME280;24936;46.328;11.026;2023-05-07T10:55:42;94297.66;;;23.04;46.98
39223;BME280;24936;46.328;11.026;2023-05-07T10:58:27;94301.38;;;23.96;46.88
39223;BME280;24936;46.328;11.026;2023-05-07T11:01:02;94296.94;;;24.20;49.15
39223;BME280;24936;46.328;11.026;2023-05-07T11:03:28;94287.69;;;25.54;46.95
39223;BME280;24936;46.328;11.026;2023-05-07T11:06:14;94290.34;;;26.06;42.38
39223;BME280;24936;46.328;11.026;2023-05-07T11:08:56;94297.47;;;26.24;43.39
39223;BME280;24936;46.328;11.026;2023-05-07T11:11:47;94287.69;;;25.65;45.07
39223;BME280;24936;46.328;11.026;2023-05-07T11:14:14;94283.75;;;26.43;44.50
39223;BME280;24936;46.328;11.026;2023-05-07T11:17:02;94279.63;;;25.30;43.25
39223;BME280;24936;46.328;11.026;2023-05-07T11:19:51;94274.97;;;24.78;39.17
39223;BME280;24936;46.328;11.026;2023-05-07T11:25:07;94274.72;;;25.15;45.50
39223;BME280;24936;46.328;11.026;2023-05-07T11:27:33;94273.69;;;24.38;43.23
39223;BME280;24936;46.328;11.026;2023-05-07T11:29:59;94270.03;;;24.74;46.52
39223;BME280;24936;46.328;11.026;2023-05-07T11:32:30;94265.47;;;24.21;44.11
39223;BME280;24936;46.328;11.026;2023-05-07T11:34:58;94259.78;;;24.71;45.00
39223;BME280;24936;46.328;11.026;2023-05-07T11:37:25;94257.91;;;24.84;45.84
39223;BME280;24936;46.328;11.026;2023-05-07T11:40:05;94260.66;;;25.37;42.11
39223;BME280;24936;46.328;11.026;2023-05-07T11:42:33;94254.63;;;26.11;42.58
39223;BME280;24936;46.328;11.026;2023-05-07T11:45:00;94249.41;;;25.40;40.75
39223;BME280;24936;46.328;11.026;2023-05-07T11:47:30;94253.00;;;27.12;39.78
39223;BME280;24936;46.328;11.026;2023-05-07T11:49:55;94256.28;;;27.37;39.48
39223;BME280;24936;46.328;11.026;2023-05-07T11:52:23;94247.22;;;27.26;38.06
39223;BME280;24936;46.328;11.026;2023-05-07T11:54:53;94251.56;;;25.02;43.06
39223;BME280;24936;46.328;11.026;2023-05-07T11:57:21;94251.72;;;24.41;44.35
39223;BME280;24936;46.328;11.026;2023-05-07T11:59:46;94249.09;;;24.10;50.13
39223;BME280;24936;46.328;11.026;2023-05-07T12:02:15;94247.16;;;23.68;47.75
39223;BME280;24936;46.328;11.026;2023-05-07T12:04:41;94241.47;;;23.46;47.60
39223;BME280;24936;46.328;11.026;2023-05-07T12:07:16;94247.38;;;22.74;48.10
39223;BME280;24936;46.328;11.026;2023-05-07T12:09:42;94244.03;;;22.53;50.05
39223;BME280;24936;46.328;11.026;2023-05-07T12:12:08;94242.06;;;22.67;49.61
39223;BME280;24936;46.328;11.026;2023-05-07T12:14:41;94234.81;;;22.93;49.62
39223;BME280;24936;46.328;11.026;2023-05-07T12:17:12;94234.75;;;23.37;51.59
39223;BME280;24936;46.328;11.026;2023-05-07T12:19:40;94227.81;;;23.78;47.66
39223;BME280;24936;46.328;11.026;2023-05-07T12:22:10;94221.41;;;23.79;45.30
39223;BME280;24936;46.328;11.026;2023-05-07T12:27:10;94223.03;;;24.11;47.50
39223;BME280;24936;46.328;11.026;2023-05-07T12:29:36;94209.09;;;24.45;43.54
39223;BME280;24936;46.328;11.026;2023-05-07T12:32:06;94225.09;;;24.63;45.17
39223;BME280;24936;46.328;11.026;2023-05-07T12:34:32;94220.81;;;25.50;42.81
39223;BME280;24936;46.328;11.026;2023-05-07T12:37:06;94222.38;;;26.50;39.71
39223;BME280;24936;46.328;11.026;2023-05-07T12:39:31;94215.41;;;26.89;37.82
39223;BME280;24936;46.328;11.026;2023-05-07T12:42:00;94211.72;;;27.34;37.60
39223;BME280;24936;46.328;11.026;2023-05-07T12:44:30;94211.41;;;27.53;35.61
39223;BME280;24936;46.328;11.026;2023-05-07T12:46:56;94205.63;;;27.05;32.32
39223;BME280;24936;46.328;11.026;2023-05-07T12:49:23;94203.16;;;27.42;36.74
39223;BME280;24936;46.328;11.026;2023-05-07T12:51:48;94205.72;;;27.10;36.12
39223;BME280;24936;46.328;11.026;2023-05-07T12:54:30;94202.50;;;26.74;37.61
39223;BME280;24936;46.328;11.026;2023-05-07T12:57:07;94202.50;;;26.56;40.06
39223;BME280;24936;46.328;11.026;2023-05-07T12:59:37;94198.72;;;23.75;45.54